createdAt,value
2018-01-08T00:02:20.199Z,9.07
2018-01-08T00:04:47.953Z,14.23
2018-01-08T00:07:15.506Z,11.47
2018-01-08T00:09:43.098Z,10.60
2018-01-08T00:12:10.643Z,10.50
2018-01-08T00:14:38.232Z,11.53
2018-01-08T00:17:05.797Z,13.57
2018-01-08T00:19:33.834Z,10.37
2018-01-08T00:22:01.386Z,9.37
2018-01-08T00:24:29.004Z,12.10
2018-01-08T00:26:56.561Z,14.60
2018-01-08T00:29:24.164Z,11.73
2018-01-08T00:31:51.792Z,11.40
2018-01-08T00:34:19.362Z,10.13
2018-01-08T00:36:46.943Z,13.90
2018-01-08T00:39:14.515Z,13.20
2018-01-08T00:41:42.131Z,11.90
2018-01-08T00:44:09.756Z,13.37
2018-01-08T00:46:37.380Z,19.23
2018-01-08T00:49:04.975Z,14.30
2018-01-08T00:51:32.584Z,12.93
2018-01-08T00:54:00.184Z,14.97
2018-01-08T00:56:27.769Z,16.50
2018-01-08T00:58:55.333Z,11.80
2018-01-08T01:01:22.941Z,14.07
2018-01-08T01:03:50.928Z,13.37
2018-01-08T01:06:18.643Z,10.37
2018-01-08T01:08:46.216Z,11.83
2018-01-08T01:11:13.815Z,13.50
2018-01-08T01:13:41.812Z,13.80
2018-01-08T01:16:09.412Z,13.53
2018-01-08T01:18:36.993Z,16.60
2018-01-08T01:21:04.595Z,14.30
2018-01-08T01:23:32.176Z,14.40
2018-01-08T01:26:00.004Z,13.80
2018-01-08T01:28:27.893Z,14.10
2018-01-08T01:30:55.459Z,13.27
2018-01-08T01:33:23.060Z,14.47
2018-01-08T01:35:51.037Z,15.60
2018-01-08T01:38:18.627Z,13.63
2018-01-08T01:40:46.194Z,14.33
2018-01-08T01:43:13.786Z,14.07
2018-01-08T01:45:41.764Z,16.47
2018-01-08T01:48:09.382Z,12.47
2018-01-08T01:50:36.947Z,16.43
2018-01-08T01:53:04.534Z,14.80
2018-01-08T01:55:32.100Z,14.27
2018-01-08T01:57:59.714Z,16.77
2018-01-08T02:00:27.289Z,17.50
2018-01-08T02:02:54.880Z,15.73
2018-01-08T02:05:22.436Z,15.43
2018-01-08T02:07:50.459Z,18.27
2018-01-08T02:10:18.018Z,19.53
2018-01-08T02:12:45.612Z,14.50
2018-01-08T02:15:13.220Z,15.97
2018-01-08T02:17:40.807Z,14.67
2018-01-08T02:20:08.378Z,16.70
2018-01-08T02:22:35.956Z,15.67
2018-01-08T02:25:03.546Z,16.03
2018-01-08T02:27:31.114Z,16.17
2018-01-08T02:29:58.668Z,15.73
2018-01-08T02:32:26.232Z,16.87
2018-01-08T02:34:53.796Z,16.03
2018-01-08T02:37:21.399Z,14.83
2018-01-08T02:39:48.974Z,12.70
2018-01-08T02:42:16.623Z,17.10
2018-01-08T02:44:44.193Z,14.13
2018-01-08T02:47:12.290Z,15.90
2018-01-08T02:49:40.045Z,15.77
2018-01-08T02:52:07.613Z,15.03
2018-01-08T02:54:35.223Z,13.27
2018-01-08T02:57:02.838Z,17.53
2018-01-08T02:59:30.444Z,17.70
2018-01-08T03:01:58.017Z,18.97
2018-01-08T03:04:25.609Z,15.53
2018-01-08T03:06:53.174Z,17.03
2018-01-08T03:09:20.763Z,16.60
2018-01-08T03:11:48.321Z,17.13
2018-01-08T03:14:15.938Z,15.03
2018-01-08T03:16:43.490Z,17.73
2018-01-08T03:19:11.101Z,14.67
2018-01-08T03:21:38.690Z,17.07
2018-01-08T03:24:06.321Z,15.17
2018-01-08T03:26:33.953Z,15.50
2018-01-08T03:29:01.556Z,12.47
2018-01-08T03:31:29.204Z,20.27
2018-01-08T03:33:57.026Z,18.60
2018-01-08T03:36:24.594Z,21.67
2018-01-08T03:38:52.205Z,20.73
2018-01-08T03:41:19.787Z,19.27
2018-01-08T03:43:47.377Z,17.37
2018-01-08T03:46:14.930Z,17.23
2018-01-08T03:48:42.690Z,17.30
2018-01-08T03:51:10.242Z,20.40
2018-01-08T03:53:38.850Z,20.27
2018-01-08T03:56:06.409Z,16.07
2018-01-08T03:58:34.051Z,21.17
2018-01-08T04:01:01.645Z,17.37
2018-01-08T04:03:29.222Z,22.07
2018-01-08T04:05:56.823Z,20.33
2018-01-08T04:08:24.452Z,22.33
2018-01-08T04:10:52.051Z,20.97
2018-01-08T04:13:19.614Z,23.97
2018-01-08T04:15:47.199Z,21.90
2018-01-08T04:18:14.805Z,20.70
2018-01-08T04:20:42.404Z,16.43
2018-01-08T04:23:09.963Z,21.30
2018-01-08T04:25:37.540Z,22.70
2018-01-08T04:28:05.133Z,22.50
2018-01-08T04:30:32.732Z,20.93
2018-01-08T04:33:00.320Z,21.23
2018-01-08T04:35:27.928Z,23.87
2018-01-08T04:37:55.506Z,22.60
2018-01-08T04:40:23.099Z,22.60
2018-01-08T04:42:50.694Z,21.07
2018-01-08T04:45:18.308Z,25.33
2018-01-08T04:47:45.902Z,21.97
2018-01-08T04:50:13.475Z,21.23
2018-01-08T04:52:41.039Z,25.07
2018-01-08T04:55:08.726Z,21.97
2018-01-08T04:57:36.293Z,26.50
2018-01-08T05:00:03.880Z,28.33
2018-01-08T05:02:31.465Z,22.30
2018-01-08T05:04:59.089Z,22.30
2018-01-08T05:07:26.662Z,24.20
2018-01-08T05:09:54.256Z,21.23
2018-01-08T05:12:21.850Z,23.90
2018-01-08T05:14:49.417Z,24.27
2018-01-08T05:17:17.037Z,25.77
2018-01-08T05:19:44.589Z,25.07
2018-01-08T05:22:12.180Z,23.87
2018-01-08T05:24:39.740Z,24.63
2018-01-08T05:27:07.336Z,25.57
2018-01-08T05:29:34.890Z,24.23
2018-01-08T05:32:02.490Z,23.03
2018-01-08T05:34:30.051Z,27.17
2018-01-08T05:36:57.656Z,23.07
2018-01-08T05:39:25.286Z,22.30
2018-01-08T05:41:52.876Z,21.30
2018-01-08T05:44:20.475Z,23.13
2018-01-08T05:46:48.235Z,19.63
2018-01-08T05:49:15.803Z,23.97
2018-01-08T05:51:43.390Z,22.23
2018-01-08T05:54:11.216Z,23.73
2018-01-08T05:56:38.832Z,23.77
2018-01-08T05:59:06.497Z,25.93
2018-01-08T06:01:34.301Z,21.73
2018-01-08T06:04:01.891Z,20.83
2018-01-08T06:06:29.501Z,26.63
2018-01-08T06:08:57.075Z,21.77
2018-01-08T06:11:25.022Z,20.23
2018-01-08T06:13:52.632Z,24.10
2018-01-08T06:16:20.231Z,23.53
2018-01-08T06:18:47.829Z,24.73
2018-01-08T06:21:15.454Z,21.47
2018-01-08T06:23:43.063Z,24.40
2018-01-08T06:26:10.905Z,22.60
2018-01-08T06:28:39.061Z,22.73
2018-01-08T06:31:06.685Z,25.33
2018-01-08T06:33:34.331Z,23.43
2018-01-08T06:36:01.911Z,23.80
2018-01-08T06:38:29.518Z,22.67
2018-01-08T06:40:57.089Z,24.37
2018-01-08T06:43:24.831Z,28.03
2018-01-08T06:45:52.400Z,22.40
2018-01-08T06:48:20.025Z,20.83
2018-01-08T06:50:47.596Z,19.90
2018-01-08T06:53:15.299Z,24.87
2018-01-08T06:55:42.877Z,18.77
2018-01-08T06:58:10.863Z,22.47
2018-01-08T07:00:38.484Z,24.37
2018-01-08T07:03:06.101Z,22.57
2018-01-08T07:05:33.667Z,21.73
2018-01-08T07:08:01.303Z,22.50
2018-01-08T07:10:28.864Z,23.80
2018-01-08T07:12:56.461Z,22.13
2018-01-08T07:15:24.044Z,22.07
2018-01-08T07:17:51.669Z,23.27
2018-01-08T07:20:19.228Z,21.17
2018-01-08T07:22:47.058Z,20.57
2018-01-08T07:25:14.657Z,20.27
2018-01-08T07:27:42.256Z,23.73
2018-01-08T07:30:09.852Z,19.40
2018-01-08T07:32:37.473Z,22.20
2018-01-08T07:35:05.042Z,21.07
2018-01-08T07:37:32.661Z,21.87
2018-01-08T07:40:00.227Z,21.33
2018-01-08T07:42:27.820Z,20.50
2018-01-08T07:44:55.807Z,21.50
2018-01-08T07:47:23.458Z,20.83
2018-01-08T07:49:51.052Z,22.97
2018-01-08T07:52:18.632Z,21.60
2018-01-08T07:54:46.232Z,23.87
2018-01-08T07:57:13.829Z,23.53
2018-01-08T07:59:41.402Z,20.60
2018-01-08T08:02:08.968Z,22.27
2018-01-08T08:07:10.372Z,19.87
2018-01-08T08:09:37.956Z,22.43
2018-01-08T08:12:05.528Z,24.53
2018-01-08T08:14:41.372Z,20.63
2018-01-08T08:17:09.306Z,22.50
2018-01-08T08:19:37.120Z,21.43
2018-01-08T08:22:04.681Z,22.63
2018-01-08T08:24:32.303Z,18.60
2018-01-08T08:26:59.878Z,18.93
2018-01-08T08:29:27.460Z,23.43
2018-01-08T08:31:55.023Z,21.73
2018-01-08T08:34:22.962Z,18.23
2018-01-08T08:36:50.600Z,22.33
2018-01-08T08:39:18.210Z,20.53
2018-01-08T08:41:45.827Z,19.83
2018-01-08T08:44:13.430Z,20.40
2018-01-08T08:46:41.031Z,19.00
2018-01-08T08:49:08.661Z,23.87
2018-01-08T08:51:36.221Z,23.53
2018-01-08T08:54:03.836Z,17.27
2018-01-08T08:56:31.392Z,21.87
2018-01-08T08:58:58.980Z,18.23
2018-01-08T09:01:26.574Z,21.60
2018-01-08T09:03:54.129Z,21.00
2018-01-08T09:06:21.723Z,20.53
2018-01-08T09:08:49.317Z,18.37
2018-01-08T09:11:17.132Z,19.20
2018-01-08T09:13:44.794Z,16.77
2018-01-08T09:16:12.453Z,20.83
2018-01-08T09:18:40.029Z,20.30
2018-01-08T09:21:08.646Z,20.23
2018-01-08T09:23:36.467Z,19.23
2018-01-08T09:26:04.055Z,17.10
2018-01-08T09:28:31.685Z,18.30
2018-01-08T09:30:59.284Z,17.23
2018-01-08T09:33:26.846Z,19.37
2018-01-08T09:35:54.476Z,17.33
2018-01-08T09:38:22.092Z,23.73
2018-01-08T09:40:49.655Z,16.93
2018-01-08T09:43:17.264Z,20.83
2018-01-08T09:45:44.866Z,18.50
2018-01-08T09:48:12.473Z,16.60
2018-01-08T09:50:40.051Z,19.47
2018-01-08T09:53:07.661Z,16.70
2018-01-08T09:55:35.250Z,22.57
2018-01-08T09:58:02.817Z,16.47
2018-01-08T10:00:30.429Z,18.57
2018-01-08T10:03:09.820Z,16.80
2018-01-08T10:05:49.217Z,17.47
2018-01-08T10:08:28.679Z,14.57
2018-01-08T10:11:08.030Z,14.67
2018-01-08T10:13:47.298Z,15.73
2018-01-08T10:16:26.539Z,17.17
2018-01-08T10:19:02.536Z,15.27
2018-01-08T10:21:30.144Z,17.87
2018-01-08T10:23:57.764Z,19.27
2018-01-08T10:26:25.369Z,16.47
2018-01-08T10:28:52.990Z,19.20
2018-01-08T10:31:20.614Z,16.13
2018-01-08T10:33:48.212Z,17.10
2018-01-08T10:36:15.808Z,19.90
2018-01-08T10:38:43.373Z,16.77
2018-01-08T10:41:10.473Z,21.97
2018-01-08T10:43:43.667Z,20.13
2018-01-08T10:46:17.012Z,18.73
2018-01-08T10:48:50.153Z,17.23
2018-01-08T10:51:23.349Z,16.17
2018-01-08T10:53:51.839Z,17.33
2018-01-08T10:56:19.697Z,19.03
2018-01-08T10:58:47.257Z,16.73
2018-01-08T11:01:20.798Z,16.50
2018-01-08T11:03:54.197Z,20.50
2018-01-08T11:06:21.803Z,17.40
2018-01-08T11:08:49.401Z,15.87
2018-01-08T11:11:17.180Z,17.37
2018-01-08T11:13:44.805Z,14.67
2018-01-08T11:16:12.446Z,15.07
2018-01-08T11:18:40.057Z,16.53
2018-01-08T11:21:07.696Z,16.83
2018-01-08T11:23:35.290Z,15.00
2018-01-08T11:26:04.063Z,18.40
2018-01-08T11:28:33.340Z,22.13
2018-01-08T11:31:01.125Z,17.23
2018-01-08T11:33:28.883Z,18.77
2018-01-08T11:35:56.962Z,19.77
2018-01-08T11:38:24.648Z,17.70
2018-01-08T11:40:52.293Z,19.50
2018-01-08T11:43:19.915Z,14.73
2018-01-08T11:45:50.859Z,18.90
2018-01-08T11:48:19.544Z,18.93
2018-01-08T11:50:47.086Z,15.10
2018-01-08T11:56:07.817Z,18.13
2018-01-08T11:58:35.432Z,17.50
2018-01-08T12:01:09.377Z,16.73
2018-01-08T12:03:36.960Z,16.63
2018-01-08T12:06:04.588Z,15.87
2018-01-08T12:08:32.201Z,16.33
2018-01-08T12:10:59.825Z,16.23
2018-01-08T12:13:27.384Z,15.73
2018-01-08T12:15:56.804Z,19.77
2018-01-08T12:18:24.418Z,19.60
2018-01-08T12:20:52.413Z,17.17
2018-01-08T12:23:20.020Z,18.47
2018-01-08T12:25:47.619Z,17.63
2018-01-08T12:28:15.184Z,16.67
2018-01-08T12:30:42.760Z,19.00
2018-01-08T12:33:10.407Z,18.13
2018-01-08T12:35:38.022Z,17.03
2018-01-08T12:38:05.622Z,18.27
2018-01-08T12:40:33.183Z,19.27
2018-01-08T12:43:00.780Z,18.17
2018-01-08T12:45:28.332Z,19.57
2018-01-08T12:47:57.036Z,19.23
2018-01-08T12:50:26.870Z,22.27
2018-01-08T12:52:54.490Z,19.00
2018-01-08T12:55:22.130Z,18.33
2018-01-08T12:57:49.710Z,18.07
2018-01-08T13:00:17.262Z,17.43
2018-01-08T13:02:45.313Z,18.37
2018-01-08T13:05:12.872Z,20.40
2018-01-08T13:07:40.451Z,22.33
2018-01-08T13:10:08.295Z,17.30
2018-01-08T13:12:36.057Z,18.77
2018-01-08T13:15:04.158Z,18.47
2018-01-08T13:17:31.892Z,16.73
2018-01-08T13:20:00.675Z,15.93
2018-01-08T13:22:28.232Z,16.47
2018-01-08T13:24:57.003Z,16.07
2018-01-08T13:27:24.815Z,20.00
2018-01-08T13:29:53.068Z,16.30
2018-01-08T13:32:20.635Z,18.40
2018-01-08T13:34:48.379Z,16.73
2018-01-08T13:37:15.997Z,17.87
2018-01-08T13:39:43.844Z,15.77
2018-01-08T13:42:13.423Z,14.10
2018-01-08T13:44:41.020Z,16.43
2018-01-08T13:47:09.027Z,17.20
2018-01-08T13:49:36.613Z,14.67
2018-01-08T13:52:04.259Z,15.40
2018-01-08T13:54:31.890Z,18.70
2018-01-08T13:56:59.451Z,16.13
2018-01-08T13:59:27.048Z,16.00
2018-01-08T14:01:55.708Z,17.27
2018-01-08T14:04:23.300Z,16.13
2018-01-08T14:06:51.035Z,15.97
2018-01-08T14:09:18.624Z,17.00
2018-01-08T14:11:46.664Z,13.33
2018-01-08T14:14:14.384Z,15.33
2018-01-08T14:16:42.378Z,12.33
2018-01-08T14:19:09.968Z,14.20
2018-01-08T14:21:37.580Z,13.90
2018-01-08T14:24:05.127Z,13.97
2018-01-08T14:26:33.224Z,13.33
2018-01-08T14:29:00.810Z,14.50
2018-01-08T14:31:28.393Z,12.30
2018-01-08T14:33:56.020Z,13.53
2018-01-08T14:36:24.618Z,15.40
2018-01-08T14:38:52.225Z,14.33
2018-01-08T14:41:19.799Z,16.87
2018-01-08T14:43:48.603Z,14.60
2018-01-08T14:46:21.444Z,14.30
2018-01-08T14:48:52.128Z,14.27
2018-01-08T14:51:22.242Z,12.63
2018-01-08T14:53:51.143Z,13.30
2018-01-08T14:56:19.622Z,12.67
2018-01-08T14:58:47.928Z,13.07
2018-01-08T15:01:15.556Z,12.67
2018-01-08T15:03:44.269Z,10.80
2018-01-08T15:06:11.933Z,11.50
2018-01-08T15:08:39.900Z,12.97
2018-01-08T15:11:08.683Z,14.23
2018-01-08T15:13:37.181Z,11.53
2018-01-08T15:16:04.778Z,12.13
2018-01-08T15:18:32.366Z,13.10
2018-01-08T15:20:59.977Z,11.87
2018-01-08T15:23:27.523Z,12.83
2018-01-08T15:25:55.094Z,13.03
2018-01-08T15:28:22.671Z,11.90
2018-01-08T15:30:50.638Z,14.17
2018-01-08T15:33:18.202Z,9.70
2018-01-08T15:35:45.820Z,11.73
2018-01-08T15:38:13.404Z,11.97
2018-01-08T15:40:41.006Z,12.03
2018-01-08T15:43:08.600Z,12.17
2018-01-08T15:45:36.695Z,12.33
2018-01-08T15:48:04.470Z,15.40
2018-01-08T15:50:32.072Z,13.10
2018-01-08T15:52:59.984Z,13.77
2018-01-08T15:55:27.757Z,11.17
2018-01-08T15:57:55.433Z,12.80
2018-01-08T16:00:23.382Z,15.47
2018-01-08T16:02:50.998Z,12.50
2018-01-08T16:05:18.873Z,13.13
2018-01-08T16:07:47.171Z,11.33
2018-01-08T16:10:14.752Z,14.37
2018-01-08T16:12:42.342Z,14.63
2018-01-08T16:15:09.909Z,12.47
2018-01-08T16:17:37.931Z,13.37
2018-01-08T16:20:05.598Z,19.87
2018-01-08T16:22:33.312Z,14.40
2018-01-08T16:25:01.311Z,12.40
2018-01-08T16:27:29.216Z,14.63
2018-01-08T16:29:58.094Z,12.43
2018-01-08T16:32:25.713Z,12.33
2018-01-08T16:34:53.273Z,12.87
2018-01-08T16:37:21.029Z,15.67
2018-01-08T16:39:48.642Z,13.03
2018-01-08T16:42:16.660Z,14.90
2018-01-08T16:44:44.274Z,13.63
2018-01-08T16:47:11.857Z,16.03
2018-01-08T16:49:41.416Z,16.03
2018-01-08T16:52:13.568Z,15.33
2018-01-08T16:54:41.223Z,17.30
2018-01-08T16:57:08.790Z,16.77
2018-01-08T16:59:36.383Z,16.73
2018-01-08T17:02:03.979Z,15.53
2018-01-08T17:04:34.588Z,13.20
2018-01-08T17:07:02.792Z,14.73
2018-01-08T17:09:31.874Z,13.70
2018-01-08T17:11:59.558Z,14.33
2018-01-08T17:14:27.185Z,13.10
2018-01-08T17:16:54.984Z,14.70
2018-01-08T17:19:22.599Z,15.73
2018-01-08T17:21:50.616Z,14.00
2018-01-08T17:24:18.439Z,13.87
2018-01-08T17:26:48.558Z,14.30
2018-01-08T17:29:17.561Z,15.23
2018-01-08T17:31:46.461Z,17.03
2018-01-08T17:34:15.102Z,14.73
2018-01-08T17:36:52.807Z,27.33
2018-01-08T17:39:21.985Z,22.03
2018-01-08T17:41:52.024Z,14.57
2018-01-08T17:44:21.245Z,14.33
2018-01-08T17:46:50.808Z,14.70
2018-01-08T17:49:20.354Z,13.97
2018-01-08T17:51:49.517Z,15.33
2018-01-08T17:54:17.231Z,14.47
2018-01-08T17:56:45.642Z,17.50
2018-01-08T17:59:15.898Z,15.77
2018-01-08T18:01:45.552Z,16.93
2018-01-08T18:04:13.219Z,13.00
2018-01-08T18:06:40.782Z,11.60
2018-01-08T18:09:08.451Z,13.57
2018-01-08T18:11:36.084Z,17.23
2018-01-08T18:14:03.696Z,11.83
2018-01-08T18:16:31.263Z,12.13
2018-01-08T18:18:58.881Z,13.27
2018-01-08T18:21:26.547Z,14.67
2018-01-08T18:23:54.137Z,14.63
2018-01-08T18:26:23.071Z,13.73
2018-01-08T18:29:01.230Z,12.37
2018-01-08T18:31:30.262Z,14.20
2018-01-08T18:34:03.392Z,14.73
2018-01-08T18:36:31.128Z,15.57
2018-01-08T18:38:59.428Z,13.10
2018-01-08T18:41:27.071Z,12.93
2018-01-08T18:43:54.697Z,12.57
2018-01-08T18:46:24.113Z,14.00
2018-01-08T18:48:51.763Z,13.43
2018-01-08T18:51:19.396Z,14.47
2018-01-08T18:53:47.300Z,11.50
2018-01-08T18:56:15.369Z,12.27
2018-01-08T18:58:43.312Z,14.33
2018-01-08T19:01:10.999Z,12.83
2018-01-08T19:03:38.952Z,11.27
2018-01-08T19:06:07.034Z,9.93
2018-01-08T19:08:34.668Z,11.77
2018-01-08T19:11:02.562Z,12.53
2018-01-08T19:13:30.630Z,14.67
2018-01-08T19:15:58.802Z,15.03
2018-01-08T19:18:26.411Z,13.90
2018-01-08T19:20:54.538Z,13.27
2018-01-08T19:23:22.597Z,12.13
2018-01-08T19:25:50.667Z,16.37
2018-01-08T19:28:18.430Z,12.43
2018-01-08T19:30:47.349Z,13.17
2018-01-08T19:33:15.163Z,12.90
2018-01-08T19:35:43.265Z,11.77
2018-01-08T19:38:11.331Z,13.40
2018-01-08T19:40:39.021Z,14.23
2018-01-08T19:43:06.678Z,13.83
2018-01-08T19:45:34.688Z,11.00
2018-01-08T19:48:02.977Z,15.77
2018-01-08T19:50:30.682Z,12.27
2018-01-08T19:52:58.511Z,12.07
2018-01-08T19:55:26.895Z,11.33
2018-01-08T19:57:55.022Z,12.23
2018-01-08T20:00:23.040Z,13.37
2018-01-08T20:02:50.656Z,12.17
2018-01-08T20:05:18.315Z,12.93
2018-01-08T20:07:46.429Z,10.87
2018-01-08T20:10:14.089Z,10.70
2018-01-08T20:12:41.985Z,12.13
2018-01-08T20:15:09.632Z,11.27
2018-01-08T20:17:37.328Z,15.87
2018-01-08T20:20:05.758Z,15.50
2018-01-08T20:22:33.452Z,14.03
2018-01-08T20:25:01.080Z,15.13
2018-01-08T20:27:28.747Z,11.67
2018-01-08T20:29:56.381Z,12.63
2018-01-08T20:32:24.062Z,11.57
2018-01-08T20:34:51.735Z,11.37
2018-01-08T20:37:19.383Z,12.83
2018-01-08T20:39:46.997Z,11.67
2018-01-08T20:42:14.640Z,13.83
2018-01-08T20:44:42.695Z,13.50
2018-01-08T20:47:10.329Z,12.63
2018-01-08T20:49:37.988Z,12.13
2018-01-08T20:52:06.884Z,12.47
2018-01-08T20:54:39.044Z,12.27
2018-01-08T20:57:06.942Z,13.07
2018-01-08T20:59:35.587Z,13.03
2018-01-08T21:02:03.836Z,12.67
2018-01-08T21:04:31.468Z,13.20
2018-01-08T21:06:59.080Z,16.00
2018-01-08T21:09:26.705Z,16.37
2018-01-08T21:11:55.770Z,12.87
2018-01-08T21:14:26.599Z,14.00
2018-01-08T21:16:54.242Z,13.07
2018-01-08T21:19:21.902Z,13.30
2018-01-08T21:21:49.560Z,12.07
2018-01-08T21:24:17.200Z,14.00
2018-01-08T21:26:44.900Z,13.67
2018-01-08T21:29:12.539Z,13.43
2018-01-08T21:31:40.206Z,13.37
2018-01-08T21:34:07.873Z,14.77
2018-01-08T21:36:35.544Z,12.40
2018-01-08T21:39:03.526Z,11.67
2018-01-08T21:41:31.212Z,12.97
2018-01-08T21:43:59.110Z,13.17
2018-01-08T21:46:27.574Z,13.33
2018-01-08T21:48:55.239Z,14.40
2018-01-08T21:51:22.888Z,12.40
2018-01-08T21:53:50.590Z,13.60
2018-01-08T21:56:18.245Z,13.60
2018-01-08T21:58:46.098Z,11.53
2018-01-08T22:01:13.791Z,12.67
2018-01-08T22:03:41.532Z,11.97
2018-01-08T22:06:09.242Z,11.47
2018-01-08T22:08:37.953Z,14.17
2018-01-08T22:11:05.677Z,20.27
2018-01-08T22:13:34.072Z,33.93
2018-01-08T22:16:01.690Z,28.93
2018-01-08T22:18:29.360Z,19.23
2018-01-08T22:20:57.970Z,14.03
2018-01-08T22:23:25.649Z,14.60
2018-01-08T22:25:53.886Z,12.90
2018-01-08T22:28:21.527Z,15.17
2018-01-08T22:30:50.272Z,11.53
2018-01-08T22:33:17.942Z,11.87
2018-01-08T22:35:45.578Z,12.03
2018-01-08T22:38:13.215Z,14.33
2018-01-08T22:40:40.933Z,14.50
2018-01-08T22:43:08.524Z,11.97
2018-01-08T22:45:36.247Z,13.17
2018-01-08T22:48:04.017Z,13.77
2018-01-08T22:50:31.700Z,15.50
2018-01-08T22:52:59.339Z,16.63
2018-01-08T22:55:27.653Z,17.17
2018-01-08T22:57:55.702Z,19.57
2018-01-08T23:00:26.449Z,17.77
2018-01-08T23:02:54.318Z,15.97
2018-01-08T23:05:53.376Z,16.07
2018-01-08T23:08:21.662Z,19.80
2018-01-08T23:10:49.305Z,16.43
2018-01-08T23:13:16.964Z,15.90
2018-01-08T23:15:44.606Z,15.00
2018-01-08T23:18:12.908Z,15.77
2018-01-08T23:20:40.571Z,14.87
2018-01-08T23:23:08.198Z,16.17
2018-01-08T23:25:35.861Z,15.30
2018-01-08T23:28:03.493Z,17.43
2018-01-08T23:30:31.201Z,16.73
2018-01-08T23:32:58.784Z,15.80
2018-01-08T23:35:26.406Z,17.73
2018-01-08T23:37:53.998Z,18.87
2018-01-08T23:40:21.637Z,17.67
2018-01-08T23:42:50.103Z,16.77
2018-01-08T23:45:17.709Z,16.77
2018-01-08T23:47:45.279Z,13.53
2018-01-08T23:50:12.914Z,14.07
2018-01-08T23:52:40.516Z,16.57
2018-01-08T23:55:08.192Z,15.03
2018-01-08T23:57:35.780Z,17.50
